createdAt,value
2023-01-02T06:17:39.481Z,10.29
2023-01-02T06:27:39.318Z,12.78
2023-01-02T06:37:39.296Z,14.51
2023-01-02T06:47:39.361Z,18.14
2023-01-02T06:57:39.368Z,4.85
2023-01-02T07:07:39.435Z,0.00
2023-01-02T07:17:39.539Z,0.00
2023-01-02T07:27:39.355Z,0.00
2023-01-02T07:37:39.428Z,0.00
2023-01-02T07:47:39.446Z,0.00
2023-01-02T07:57:39.425Z,0.00
2023-01-02T08:07:44.769Z,0.00
2023-01-02T08:17:39.463Z,0.00
2023-01-02T08:27:39.439Z,0.00
2023-01-02T08:37:39.417Z,0.00
2023-01-02T08:47:39.385Z,0.00
2023-01-02T08:57:39.521Z,0.00
2023-01-02T09:07:39.453Z,0.00
2023-01-02T09:17:39.463Z,0.00
2023-01-02T09:27:39.396Z,0.00
2023-01-02T09:37:39.403Z,0.00
2023-01-02T09:47:39.474Z,0.00
2023-01-02T09:57:39.503Z,0.00
2023-01-02T10:07:39.407Z,0.00
2023-01-02T10:17:39.447Z,0.00
2023-01-02T10:27:39.618Z,0.00
2023-01-02T10:37:39.460Z,0.00
2023-01-02T10:47:39.530Z,0.00
2023-01-02T10:57:39.475Z,23.46
2023-01-02T11:07:39.602Z,23.71
2023-01-02T11:17:39.616Z,21.62
2023-01-02T11:27:39.565Z,21.58
2023-01-02T11:37:39.639Z,23.40
2023-01-02T11:47:39.617Z,24.09
2023-01-02T11:57:39.587Z,19.70
2023-01-02T12:07:39.634Z,18.37
2023-01-02T12:17:39.592Z,23.97
2023-01-02T12:27:39.682Z,24.39
2023-01-02T12:37:39.741Z,28.68
2023-01-02T12:47:39.724Z,19.52
2023-01-02T12:57:39.784Z,10.73
2023-01-02T13:07:39.817Z,11.47
2023-01-02T13:17:39.793Z,10.35
2023-01-02T13:27:39.854Z,13.58
2023-01-02T13:37:39.746Z,12.50
2023-01-02T13:47:39.841Z,10.70
2023-01-02T13:57:39.766Z,8.34
2023-01-02T14:07:39.815Z,6.52
2023-01-02T14:17:39.754Z,10.33
2023-01-02T14:27:39.874Z,10.86
2023-01-02T14:37:40.012Z,10.39
2023-01-02T14:47:40.377Z,8.59
2023-01-02T14:57:39.919Z,8.91
2023-01-02T15:07:39.981Z,6.92
2023-01-02T15:17:39.895Z,6.51
2023-01-02T15:27:40.041Z,4.41
2023-01-02T15:37:39.995Z,2.29
2023-01-02T15:47:39.899Z,1.24
2023-01-02T15:57:40.128Z,4.38
2023-01-02T16:07:40.123Z,5.98
2023-01-02T16:17:40.009Z,10.12
2023-01-02T16:27:40.051Z,7.93
2023-01-02T16:37:40.187Z,9.70
2023-01-02T16:47:40.123Z,9.07
2023-01-02T16:57:40.096Z,7.30
2023-01-02T17:07:40.067Z,9.00
2023-01-02T17:17:40.120Z,8.02
2023-01-02T17:27:40.157Z,5.94
2023-01-02T17:37:40.147Z,6.50
2023-01-02T17:48:00.751Z,7.89
2023-01-02T17:57:40.125Z,7.19
2023-01-02T18:07:40.149Z,7.63
2023-01-02T18:17:40.016Z,7.34
2023-01-02T18:27:40.032Z,9.93
2023-01-02T18:37:40.114Z,10.68
2023-01-02T18:47:40.278Z,9.58
2023-01-02T18:57:40.233Z,10.86
2023-01-02T19:07:40.321Z,7.80
2023-01-02T19:17:40.564Z,8.47
